sensor_id;sensor_type;location;lat;lon;timestamp;pressure;altitude;pressure_sealevel;temperature;humidity
47280;BME280;34064;44.942;0.008;2023-07-13T00:00:35;99048.03;;;23.18;52.02
47280;BME280;34064;44.942;0.008;2023-07-13T00:03:02;99058.59;;;23.13;52.47
47280;BME280;34064;44.942;0.008;2023-07-13T00:05:29;99045.19;;;23.04;52.34
47280;BME280;34064;44.942;0.008;2023-07-13T00:07:55;99057.41;;;23.00;52.74
47280;BME280;34064;44.942;0.008;2023-07-13T00:10:21;99055.13;;;22.97;52.84
47280;BME280;34064;44.942;0.008;2023-07-13T00:12:48;99050.06;;;22.94;52.66
47280;BME280;34064;44.942;0.008;2023-07-13T00:15:24;99049.03;;;22.95;52.82
47280;BME280;34064;44.942;0.008;2023-07-13T00:17:52;99039.69;;;22.98;52.69
47280;BME280;34064;44.942;0.008;2023-07-13T00:20:18;99031.56;;;22.98;53.09
47280;BME280;34064;44.942;0.008;2023-07-13T00:22:48;99035.94;;;22.99;52.83
47280;BME280;34064;44.942;0.008;2023-07-13T00:25:14;99041.94;;;22.94;52.79
47280;BME280;34064;44.942;0.008;2023-07-13T00:27:41;99050.84;;;22.88;52.97
47280;BME280;34064;44.942;0.008;2023-07-13T00:30:08;99049.94;;;22.81;53.19
47280;BME280;34064;44.942;0.008;2023-07-13T00:32:35;99062.53;;;22.73;53.36
47280;BME280;34064;44.942;0.008;2023-07-13T00:35:01;99065.00;;;22.68;53.68
47280;BME280;34064;44.942;0.008;2023-07-13T00:37:29;99059.94;;;22.65;53.84
47280;BME280;34064;44.942;0.008;2023-07-13T00:39:55;99063.06;;;22.62;53.82
47280;BME280;34064;44.942;0.008;2023-07-13T00:42:21;99058.28;;;22.64;53.85
47280;BME280;34064;44.942;0.008;2023-07-13T00:45:07;99062.66;;;22.65;53.23
47280;BME280;34064;44.942;0.008;2023-07-13T00:47:48;99065.75;;;22.62;54.01
47280;BME280;34064;44.942;0.008;2023-07-13T00:50:16;99075.28;;;22.58;53.97
47280;BME280;34064;44.942;0.008;2023-07-13T00:52:43;99073.59;;;22.57;53.80
47280;BME280;34064;44.942;0.008;2023-07-13T00:55:10;99066.50;;;22.56;53.71
47280;BME280;34064;44.942;0.008;2023-07-13T00:57:38;99064.44;;;22.58;53.70
47280;BME280;34064;44.942;0.008;2023-07-13T01:00:05;99053.41;;;22.59;53.86
47280;BME280;34064;44.942;0.008;2023-07-13T01:02:33;99060.72;;;22.59;54.38
47280;BME280;34064;44.942;0.008;2023-07-13T01:05:00;99057.16;;;22.58;54.25
47280;BME280;34064;44.942;0.008;2023-07-13T01:07:27;99060.91;;;22.57;54.03
47280;BME280;34064;44.942;0.008;2023-07-13T01:09:53;99055.41;;;22.51;54.11
47280;BME280;34064;44.942;0.008;2023-07-13T01:12:20;99066.50;;;22.41;54.52
47280;BME280;34064;44.942;0.008;2023-07-13T01:14:46;99064.19;;;22.38;54.46
47280;BME280;34064;44.942;0.008;2023-07-13T01:17:12;99061.63;;;22.36;54.45
47280;BME280;34064;44.942;0.008;2023-07-13T01:19:40;99069.09;;;22.34;54.54
47280;BME280;34064;44.942;0.008;2023-07-13T01:22:16;99075.72;;;22.32;54.81
47280;BME280;34064;44.942;0.008;2023-07-13T01:24:44;99073.22;;;22.30;54.39
47280;BME280;34064;44.942;0.008;2023-07-13T01:27:11;99074.44;;;22.27;54.59
47280;BME280;34064;44.942;0.008;2023-07-13T01:29:39;99080.41;;;22.23;54.77
47280;BME280;34064;44.942;0.008;2023-07-13T01:32:14;99094.31;;;22.20;54.59
47280;BME280;34064;44.942;0.008;2023-07-13T01:34:41;99094.94;;;22.07;55.32
47280;BME280;34064;44.942;0.008;2023-07-13T01:37:09;99099.59;;;21.98;55.71
47280;BME280;34064;44.942;0.008;2023-07-13T01:39:35;99101.28;;;21.99;55.32
47280;BME280;34064;44.942;0.008;2023-07-13T01:42:01;99093.16;;;21.99;55.68
47280;BME280;34064;44.942;0.008;2023-07-13T01:44:28;99094.84;;;22.00;55.66
47280;BME280;34064;44.942;0.008;2023-07-13T01:46:54;99089.44;;;22.00;55.89
47280;BME280;34064;44.942;0.008;2023-07-13T01:49:20;99094.47;;;22.03;55.52
47280;BME280;34064;44.942;0.008;2023-07-13T01:51:46;99099.22;;;22.01;55.60
47280;BME280;34064;44.942;0.008;2023-07-13T01:54:13;99095.50;;;22.02;55.79
47280;BME280;34064;44.942;0.008;2023-07-13T01:56:39;99089.06;;;22.03;55.75
47280;BME280;34064;44.942;0.008;2023-07-13T01:59:08;99094.47;;;22.03;55.41
47280;BME280;34064;44.942;0.008;2023-07-13T02:01:34;99086.16;;;22.05;55.21
47280;BME280;34064;44.942;0.008;2023-07-13T02:04:00;99085.34;;;22.04;55.27
47280;BME280;34064;44.942;0.008;2023-07-13T02:06:27;99087.03;;;22.05;55.70
47280;BME280;34064;44.942;0.008;2023-07-13T02:08:54;99079.94;;;22.04;55.49
47280;BME280;34064;44.942;0.008;2023-07-13T02:11:20;99085.72;;;22.01;55.28
47280;BME280;34064;44.942;0.008;2023-07-13T02:13:46;99074.22;;;21.99;55.63
47280;BME280;34064;44.942;0.008;2023-07-13T02:16:12;99076.09;;;21.99;55.27
47280;BME280;34064;44.942;0.008;2023-07-13T02:18:38;99080.03;;;21.96;55.60
47280;BME280;34064;44.942;0.008;2023-07-13T02:21:05;99073.97;;;21.94;55.61
47280;BME280;34064;44.942;0.008;2023-07-13T02:23:31;99067.22;;;21.90;55.50
47280;BME280;34064;44.942;0.008;2023-07-13T02:25:58;99074.69;;;21.88;55.44
47280;BME280;34064;44.942;0.008;2023-07-13T02:28:24;99081.69;;;21.82;55.89
47280;BME280;34064;44.942;0.008;2023-07-13T02:30:50;99079.50;;;21.77;55.62
47280;BME280;34064;44.942;0.008;2023-07-13T02:33:16;99092.75;;;21.72;55.65
47280;BME280;34064;44.942;0.008;2023-07-13T02:35:43;99092.28;;;21.69;55.89
47280;BME280;34064;44.942;0.008;2023-07-13T02:38:09;99094.66;;;21.63;55.99
47280;BME280;34064;44.942;0.008;2023-07-13T02:40:37;99103.31;;;21.59;55.82
47280;BME280;34064;44.942;0.008;2023-07-13T02:43:05;99097.59;;;21.54;55.89
47280;BME280;34064;44.942;0.008;2023-07-13T02:45:33;99093.75;;;21.48;55.90
47280;BME280;34064;44.942;0.008;2023-07-13T02:48:03;99105.09;;;21.43;55.92
47280;BME280;34064;44.942;0.008;2023-07-13T02:50:31;99103.81;;;21.39;55.87
47280;BME280;34064;44.942;0.008;2023-07-13T02:52:59;99100.78;;;21.34;55.81
47280;BME280;34064;44.942;0.008;2023-07-13T02:55:26;99108.59;;;21.29;56.02
47280;BME280;34064;44.942;0.008;2023-07-13T02:57:54;99107.63;;;21.22;55.91
47280;BME280;34064;44.942;0.008;2023-07-13T03:00:22;99112.38;;;21.19;55.96
47280;BME280;34064;44.942;0.008;2023-07-13T03:02:50;99109.19;;;21.16;55.96
47280;BME280;34064;44.942;0.008;2023-07-13T03:05:19;99116.16;;;21.10;55.94
47280;BME280;34064;44.942;0.008;2023-07-13T03:07:47;99110.25;;;21.07;56.12
47280;BME280;34064;44.942;0.008;2023-07-13T03:10:15;99115.16;;;21.03;55.83
47280;BME280;34064;44.942;0.008;2023-07-13T03:12:42;99120.09;;;20.99;55.99
47280;BME280;34064;44.942;0.008;2023-07-13T03:15:08;99114.19;;;20.96;56.12
47280;BME280;34064;44.942;0.008;2023-07-13T03:17:36;99114.53;;;20.93;55.78
47280;BME280;34064;44.942;0.008;2023-07-13T03:20:03;99126.06;;;20.86;56.01
47280;BME280;34064;44.942;0.008;2023-07-13T03:22:30;99134.50;;;20.83;56.19
47280;BME280;34064;44.942;0.008;2023-07-13T03:24:56;99128.81;;;20.78;55.93
47280;BME280;34064;44.942;0.008;2023-07-13T03:27:22;99124.75;;;20.74;56.30
47280;BME280;34064;44.942;0.008;2023-07-13T03:29:48;99142.31;;;20.70;56.11
47280;BME280;34064;44.942;0.008;2023-07-13T03:32:14;99142.66;;;20.67;56.38
47280;BME280;34064;44.942;0.008;2023-07-13T03:34:40;99146.72;;;20.63;56.17
47280;BME280;34064;44.942;0.008;2023-07-13T03:37:06;99143.53;;;20.59;56.29
47280;BME280;34064;44.942;0.008;2023-07-13T03:39:33;99151.28;;;20.54;56.02
47280;BME280;34064;44.942;0.008;2023-07-13T03:41:59;99162.59;;;20.49;56.06
47280;BME280;34064;44.942;0.008;2023-07-13T03:44:25;99166.66;;;20.45;55.81
47280;BME280;34064;44.942;0.008;2023-07-13T03:46:51;99171.56;;;20.41;56.26
47280;BME280;34064;44.942;0.008;2023-07-13T03:49:18;99169.38;;;20.37;56.06
47280;BME280;34064;44.942;0.008;2023-07-13T03:51:45;99171.44;;;20.35;56.23
47280;BME280;34064;44.942;0.008;2023-07-13T03:54:13;99168.06;;;20.33;56.08
47280;BME280;34064;44.942;0.008;2023-07-13T03:56:40;99180.53;;;20.34;56.14
47280;BME280;34064;44.942;0.008;2023-07-13T03:59:06;99179.19;;;20.30;56.04
47280;BME280;34064;44.942;0.008;2023-07-13T04:01:33;99184.91;;;20.26;56.08
47280;BME280;34064;44.942;0.008;2023-07-13T04:04:00;99185.28;;;20.23;56.13
47280;BME280;34064;44.942;0.008;2023-07-13T04:06:27;99182.06;;;20.20;56.09
47280;BME280;34064;44.942;0.008;2023-07-13T04:08:56;99183.59;;;20.14;56.23
47280;BME280;34064;44.942;0.008;2023-07-13T04:11:23;99185.78;;;20.10;56.24
47280;BME280;34064;44.942;0.008;2023-07-13T04:13:50;99196.72;;;20.09;56.51
47280;BME280;34064;44.942;0.008;2023-07-13T04:16:16;99197.22;;;20.04;56.47
47280;BME280;34064;44.942;0.008;2023-07-13T04:18:43;99196.41;;;20.04;56.59
47280;BME280;34064;44.942;0.008;2023-07-13T04:21:10;99203.81;;;20.02;56.58
47280;BME280;34064;44.942;0.008;2023-07-13T04:23:37;99200.13;;;20.03;56.41
47280;BME280;34064;44.942;0.008;2023-07-13T04:26:04;99202.63;;;20.04;56.49
47280;BME280;34064;44.942;0.008;2023-07-13T04:28:30;99194.38;;;20.06;56.53
47280;BME280;34064;44.942;0.008;2023-07-13T04:30:57;99199.28;;;20.02;56.86
47280;BME280;34064;44.942;0.008;2023-07-13T04:33:25;99200.13;;;20.03;56.72
47280;BME280;34064;44.942;0.008;2023-07-13T04:35:52;99204.69;;;20.02;56.46
47280;BME280;34064;44.942;0.008;2023-07-13T04:38:28;99196.72;;;20.01;56.51
47280;BME280;34064;44.942;0.008;2023-07-13T04:40:55;99193.34;;;19.99;56.49
47280;BME280;34064;44.942;0.008;2023-07-13T04:43:21;99194.53;;;19.96;56.44
47280;BME280;34064;44.942;0.008;2023-07-13T04:45:49;99197.41;;;19.94;56.75
47280;BME280;34064;44.942;0.008;2023-07-13T04:48:17;99204.81;;;19.92;56.63
47280;BME280;34064;44.942;0.008;2023-07-13T04:50:43;99212.22;;;19.90;56.86
47280;BME280;34064;44.942;0.008;2023-07-13T04:53:09;99218.28;;;19.84;56.68
47280;BME280;34064;44.942;0.008;2023-07-13T04:55:37;99209.69;;;19.80;56.50
47280;BME280;34064;44.942;0.008;2023-07-13T04:58:04;99217.25;;;19.77;56.57
47280;BME280;34064;44.942;0.008;2023-07-13T05:00:30;99214.56;;;19.77;56.50
47280;BME280;34064;44.942;0.008;2023-07-13T05:02:57;99215.56;;;19.76;56.50
47280;BME280;34064;44.942;0.008;2023-07-13T05:05:24;99211.88;;;19.77;56.48
47280;BME280;34064;44.942;0.008;2023-07-13T05:07:51;99218.09;;;19.77;56.60
47280;BME280;34064;44.942;0.008;2023-07-13T05:10:17;99222.31;;;19.80;56.45
47280;BME280;34064;44.942;0.008;2023-07-13T05:12:43;99226.00;;;19.79;56.82
47280;BME280;34064;44.942;0.008;2023-07-13T05:15:10;99220.63;;;19.79;56.56
47280;BME280;34064;44.942;0.008;2023-07-13T05:17:36;99217.78;;;19.80;56.58
47280;BME280;34064;44.942;0.008;2023-07-13T05:20:05;99220.28;;;19.82;56.47
47280;BME280;34064;44.942;0.008;2023-07-13T05:22:31;99228.22;;;19.84;56.50
47280;BME280;34064;44.942;0.008;2023-07-13T05:24:57;99229.06;;;19.84;56.47
47280;BME280;34064;44.942;0.008;2023-07-13T05:27:23;99231.59;;;19.86;56.35
47280;BME280;34064;44.942;0.008;2023-07-13T05:29:50;99235.84;;;19.88;56.46
47280;BME280;34064;44.942;0.008;2023-07-13T05:32:16;99231.09;;;19.90;56.54
47280;BME280;34064;44.942;0.008;2023-07-13T05:34:43;99237.84;;;19.94;56.82
47280;BME280;34064;44.942;0.008;2023-07-13T05:37:09;99234.84;;;19.98;56.42
47280;BME280;34064;44.942;0.008;2023-07-13T05:39:35;99239.88;;;20.01;56.45
47280;BME280;34064;44.942;0.008;2023-07-13T05:42:01;99237.53;;;20.06;56.38
47280;BME280;34064;44.942;0.008;2023-07-13T05:44:28;99241.41;;;20.12;56.49
47280;BME280;34064;44.942;0.008;2023-07-13T05:46:54;99233.66;;;20.17;56.67
47280;BME280;34064;44.942;0.008;2023-07-13T05:49:22;99235.00;;;20.21;56.58
47280;BME280;34064;44.942;0.008;2023-07-13T05:51:49;99234.66;;;20.24;56.81
47280;BME280;34064;44.942;0.008;2023-07-13T05:54:15;99240.22;;;20.31;56.94
47280;BME280;34064;44.942;0.008;2023-07-13T05:56:42;99243.22;;;20.36;56.39
47280;BME280;34064;44.942;0.008;2023-07-13T05:59:09;99240.88;;;20.41;56.95
47280;BME280;34064;44.942;0.008;2023-07-13T06:01:36;99231.06;;;20.48;56.91
47280;BME280;34064;44.942;0.008;2023-07-13T06:04:03;99225.00;;;20.54;56.84
47280;BME280;34064;44.942;0.008;2023-07-13T06:06:29;99230.38;;;20.63;57.04
47280;BME280;34064;44.942;0.008;2023-07-13T06:08:55;99228.00;;;20.68;57.19
47280;BME280;34064;44.942;0.008;2023-07-13T06:11:23;99225.50;;;20.75;56.56
47280;BME280;34064;44.942;0.008;2023-07-13T06:13:49;99231.72;;;20.75;56.79
47280;BME280;34064;44.942;0.008;2023-07-13T06:16:16;99223.81;;;20.73;57.16
47280;BME280;34064;44.942;0.008;2023-07-13T06:18:42;99224.63;;;20.74;56.47
47280;BME280;34064;44.942;0.008;2023-07-13T06:21:09;99220.59;;;20.78;56.84
47280;BME280;34064;44.942;0.008;2023-07-13T06:23:36;99228.84;;;20.85;56.56
47280;BME280;34064;44.942;0.008;2023-07-13T06:26:03;99217.50;;;20.90;56.75
47280;BME280;34064;44.942;0.008;2023-07-13T06:28:29;99214.09;;;20.96;56.38
47280;BME280;34064;44.942;0.008;2023-07-13T06:30:59;99227.25;;;20.99;56.56
47280;BME280;34064;44.942;0.008;2023-07-13T06:33:26;99226.56;;;21.05;56.14
47280;BME280;34064;44.942;0.008;2023-07-13T06:35:52;99226.38;;;21.15;56.05
47280;BME280;34064;44.942;0.008;2023-07-13T06:38:20;99224.16;;;21.18;55.84
47280;BME280;34064;44.942;0.008;2023-07-13T06:40:46;99230.72;;;21.24;55.75
47280;BME280;34064;44.942;0.008;2023-07-13T06:43:13;99226.63;;;21.28;55.76
47280;BME280;34064;44.942;0.008;2023-07-13T06:45:43;99229.66;;;21.33;55.62
47280;BME280;34064;44.942;0.008;2023-07-13T06:48:11;99230.44;;;21.42;55.57
47280;BME280;34064;44.942;0.008;2023-07-13T06:50:37;99227.66;;;21.50;55.11
47280;BME280;34064;44.942;0.008;2023-07-13T06:53:04;99222.59;;;21.56;54.73
47280;BME280;34064;44.942;0.008;2023-07-13T06:55:30;99216.13;;;21.65;54.58
47280;BME280;34064;44.942;0.008;2023-07-13T06:57:57;99219.13;;;21.70;54.75
47280;BME280;34064;44.942;0.008;2023-07-13T07:00:23;99213.19;;;21.75;54.22
47280;BME280;34064;44.942;0.008;2023-07-13T07:02:49;99218.72;;;21.81;54.39
47280;BME280;34064;44.942;0.008;2023-07-13T07:05:15;99222.38;;;21.89;54.21
47280;BME280;34064;44.942;0.008;2023-07-13T07:07:41;99218.97;;;21.95;53.86
47280;BME280;34064;44.942;0.008;2023-07-13T07:10:08;99218.03;;;22.03;53.46
47280;BME280;34064;44.942;0.008;2023-07-13T07:12:34;99205.28;;;22.11;53.44
47280;BME280;34064;44.942;0.008;2023-07-13T07:15:00;99206.25;;;22.19;53.41
47280;BME280;34064;44.942;0.008;2023-07-13T07:17:26;99202.44;;;22.28;53.13
47280;BME280;34064;44.942;0.008;2023-07-13T07:19:53;99198.81;;;22.36;52.84
47280;BME280;34064;44.942;0.008;2023-07-13T07:22:20;99197.53;;;22.47;52.48
47280;BME280;34064;44.942;0.008;2023-07-13T07:24:46;99196.44;;;22.56;52.24
47280;BME280;34064;44.942;0.008;2023-07-13T07:27:12;99198.22;;;22.64;51.87
47280;BME280;34064;44.942;0.008;2023-07-13T07:29:38;99194.09;;;22.68;51.77
47280;BME280;34064;44.942;0.008;2023-07-13T07:32:05;99188.41;;;22.78;50.96
47280;BME280;34064;44.942;0.008;2023-07-13T07:34:31;99189.34;;;22.85;49.56
47280;BME280;34064;44.942;0.008;2023-07-13T07:37:00;99193.72;;;22.86;49.42
47280;BME280;34064;44.942;0.008;2023-07-13T07:39:27;99196.06;;;22.89;49.32
47280;BME280;34064;44.942;0.008;2023-07-13T07:41:54;99194.28;;;22.96;49.19
47280;BME280;34064;44.942;0.008;2023-07-13T07:44:20;99187.28;;;23.02;48.53
47280;BME280;34064;44.942;0.008;2023-07-13T07:46:46;99185.69;;;23.08;47.99
47280;BME280;34064;44.942;0.008;2023-07-13T07:49:12;99185.94;;;23.13;47.88
47280;BME280;34064;44.942;0.008;2023-07-13T07:51:39;99185.84;;;23.21;48.09
47280;BME280;34064;44.942;0.008;2023-07-13T07:54:05;99176.13;;;23.27;48.21
47280;BME280;34064;44.942;0.008;2023-07-13T07:56:31;99178.53;;;23.36;48.31
47280;BME280;34064;44.942;0.008;2023-07-13T07:58:58;99164.72;;;23.53;47.59
47280;BME280;34064;44.942;0.008;2023-07-13T08:01:24;99154.72;;;23.53;46.50
47280;BME280;34064;44.942;0.008;2023-07-13T08:03:50;99162.25;;;23.58;46.72
47280;BME280;34064;44.942;0.008;2023-07-13T08:06:16;99173.38;;;23.63;46.43
47280;BME280;34064;44.942;0.008;2023-07-13T08:08:45;99170.34;;;23.73;46.25
47280;BME280;34064;44.942;0.008;2023-07-13T08:11:11;99166.28;;;23.84;45.46
47280;BME280;34064;44.942;0.008;2023-07-13T08:13:38;99173.38;;;23.85;45.03
47280;BME280;34064;44.942;0.008;2023-07-13T08:16:05;99180.09;;;23.89;45.05
47280;BME280;34064;44.942;0.008;2023-07-13T08:18:31;99162.66;;;23.98;45.33
47280;BME280;34064;44.942;0.008;2023-07-13T08:20:57;99164.41;;;24.06;45.31
47280;BME280;34064;44.942;0.008;2023-07-13T08:23:25;99166.75;;;24.16;45.29
47280;BME280;34064;44.942;0.008;2023-07-13T08:25:52;99162.97;;;24.39;44.45
47280;BME280;34064;44.942;0.008;2023-07-13T08:28:19;99152.16;;;24.52;42.97
47280;BME280;34064;44.942;0.008;2023-07-13T08:30:46;99161.78;;;24.48;42.72
47280;BME280;34064;44.942;0.008;2023-07-13T08:33:15;99156.59;;;24.60;42.29
47280;BME280;34064;44.942;0.008;2023-07-13T08:35:41;99153.06;;;24.59;42.77
47280;BME280;34064;44.942;0.008;2023-07-13T08:38:07;99168.94;;;24.63;42.84
47280;BME280;34064;44.942;0.008;2023-07-13T08:40:34;99169.88;;;24.70;42.34
47280;BME280;34064;44.942;0.008;2023-07-13T08:43:00;99172.41;;;24.78;41.89
47280;BME280;34064;44.942;0.008;2023-07-13T08:45:33;99173.66;;;24.82;41.24
47280;BME280;34064;44.942;0.008;2023-07-13T08:48:13;99183.28;;;24.85;40.55
47280;BME280;34064;44.942;0.008;2023-07-13T08:53:38;99150.16;;;25.03;41.17
47280;BME280;34064;44.942;0.008;2023-07-13T08:56:05;99153.97;;;25.15;40.60
47280;BME280;34064;44.942;0.008;2023-07-13T08:58:35;99148.53;;;25.29;40.47
47280;BME280;34064;44.942;0.008;2023-07-13T09:01:20;99141.06;;;25.37;39.99
47280;BME280;34064;44.942;0.008;2023-07-13T09:04:05;99139.63;;;25.48;40.02
47280;BME280;34064;44.942;0.008;2023-07-13T09:06:40;99137.34;;;25.59;39.94
47280;BME280;34064;44.942;0.008;2023-07-13T09:09:33;99133.78;;;25.65;39.77
47280;BME280;34064;44.942;0.008;2023-07-13T09:14:34;99127.75;;;25.83;39.05
47280;BME280;34064;44.942;0.008;2023-07-13T09:17:03;99122.06;;;25.84;38.75
47280;BME280;34064;44.942;0.008;2023-07-13T09:19:31;99117.69;;;25.90;38.81
47280;BME280;34064;44.942;0.008;2023-07-13T09:21:59;99117.47;;;25.98;38.57
47280;BME280;34064;44.942;0.008;2023-07-13T09:24:38;99107.22;;;26.07;38.36
47280;BME280;34064;44.942;0.008;2023-07-13T09:27:21;99117.47;;;26.05;38.15
47280;BME280;34064;44.942;0.008;2023-07-13T09:29:49;99119.78;;;26.08;38.39
47280;BME280;34064;44.942;0.008;2023-07-13T09:32:18;99108.88;;;26.22;37.60
47280;BME280;34064;44.942;0.008;2023-07-13T09:34:52;99109.91;;;26.34;37.26
47280;BME280;34064;44.942;0.008;2023-07-13T09:37:19;99102.34;;;26.50;36.24
47280;BME280;34064;44.942;0.008;2023-07-13T09:39:46;99119.94;;;26.40;35.80
47280;BME280;34064;44.942;0.008;2023-07-13T09:42:20;99123.13;;;26.30;36.11
47280;BME280;34064;44.942;0.008;2023-07-13T09:49:43;99122.88;;;26.52;35.51
47280;BME280;34064;44.942;0.008;2023-07-13T09:52:12;99123.22;;;26.69;35.19
47280;BME280;34064;44.942;0.008;2023-07-13T09:54:43;99112.69;;;26.93;34.89
47280;BME280;34064;44.942;0.008;2023-07-13T09:57:17;99115.16;;;26.94;34.21
47280;BME280;34064;44.942;0.008;2023-07-13T09:59:46;99121.00;;;27.05;34.43
47280;BME280;34064;44.942;0.008;2023-07-13T10:02:32;99113.31;;;27.27;34.26
47280;BME280;34064;44.942;0.008;2023-07-13T10:05:00;99106.13;;;27.39;33.48
47280;BME280;34064;44.942;0.008;2023-07-13T10:07:27;99101.28;;;27.42;33.89
47280;BME280;34064;44.942;0.008;2023-07-13T10:09:53;99107.97;;;27.46;33.64
47280;BME280;34064;44.942;0.008;2023-07-13T10:12:20;99113.00;;;27.49;33.81
47280;BME280;34064;44.942;0.008;2023-07-13T10:14:46;99108.59;;;27.48;33.51
47280;BME280;34064;44.942;0.008;2023-07-13T10:17:14;99115.47;;;27.57;33.37
47280;BME280;34064;44.942;0.008;2023-07-13T10:19:41;99116.22;;;27.64;33.83
47280;BME280;34064;44.942;0.008;2023-07-13T10:22:23;99117.19;;;27.77;34.05
47280;BME280;34064;44.942;0.008;2023-07-13T10:24:51;99106.56;;;27.94;33.76
47280;BME280;34064;44.942;0.008;2023-07-13T10:27:51;99105.59;;;28.07;33.19
47280;BME280;34064;44.942;0.008;2023-07-13T10:32:42;99117.75;;;28.11;33.54
47280;BME280;34064;44.942;0.008;2023-07-13T10:35:10;99114.19;;;28.10;33.18
47280;BME280;34064;44.942;0.008;2023-07-13T10:40:14;99101.13;;;28.38;31.57
47280;BME280;34064;44.942;0.008;2023-07-13T10:42:42;99112.78;;;28.26;32.14
47280;BME280;34064;44.942;0.008;2023-07-13T10:45:16;99097.84;;;28.29;32.48
47280;BME280;34064;44.942;0.008;2023-07-13T10:47:44;99098.59;;;28.17;32.87
47280;BME280;34064;44.942;0.008;2023-07-13T10:50:23;99107.00;;;28.16;32.98
47280;BME280;34064;44.942;0.008;2023-07-13T10:52:54;99106.72;;;28.24;32.91
47280;BME280;34064;44.942;0.008;2023-07-13T10:55:41;99110.97;;;28.39;32.53
47280;BME280;34064;44.942;0.008;2023-07-13T10:58:21;99105.22;;;28.47;31.56
47280;BME280;34064;44.942;0.008;2023-07-13T11:01:32;99101.44;;;28.48;31.69
47280;BME280;34064;44.942;0.008;2023-07-13T11:06:15;99089.56;;;28.54;31.57
47280;BME280;34064;44.942;0.008;2023-07-13T11:18:48;99069.56;;;29.09;31.00
47280;BME280;34064;44.942;0.008;2023-07-13T11:23:42;99071.59;;;29.14;30.49
47280;BME280;34064;44.942;0.008;2023-07-13T11:28:55;99061.19;;;29.35;30.30
47280;BME280;34064;44.942;0.008;2023-07-13T11:31:21;99052.91;;;29.53;30.23
47280;BME280;34064;44.942;0.008;2023-07-13T11:33:52;99045.66;;;29.71;30.00
47280;BME280;34064;44.942;0.008;2023-07-13T11:36:20;99041.97;;;29.77;29.59
47280;BME280;34064;44.942;0.008;2023-07-13T11:38:55;99034.59;;;29.90;29.73
47280;BME280;34064;44.942;0.008;2023-07-13T11:41:27;99030.69;;;29.97;28.91
47280;BME280;34064;44.942;0.008;2023-07-13T11:44:02;99027.56;;;30.06;29.90
47280;BME280;34064;44.942;0.008;2023-07-13T11:46:30;99034.72;;;30.07;28.38
47280;BME280;34064;44.942;0.008;2023-07-13T11:48:57;99029.13;;;30.13;28.86
47280;BME280;34064;44.942;0.008;2023-07-13T11:51:30;99035.31;;;30.09;28.81
47280;BME280;34064;44.942;0.008;2023-07-13T11:53:57;99035.06;;;30.10;29.49
47280;BME280;34064;44.942;0.008;2023-07-13T11:56:26;99028.16;;;30.19;29.66
47280;BME280;34064;44.942;0.008;2023-07-13T11:58:53;99031.00;;;30.25;29.23
47280;BME280;34064;44.942;0.008;2023-07-13T12:01:24;99020.28;;;30.35;29.34
47280;BME280;34064;44.942;0.008;2023-07-13T12:03:51;99015.13;;;30.39;29.06
47280;BME280;34064;44.942;0.008;2023-07-13T12:06:24;99016.56;;;30.41;28.80
47280;BME280;34064;44.942;0.008;2023-07-13T12:08:51;99031.22;;;30.35;29.22
47280;BME280;34064;44.942;0.008;2023-07-13T12:11:18;99030.50;;;30.40;29.05
47280;BME280;34064;44.942;0.008;2023-07-13T12:13:45;99026.78;;;30.46;28.85
47280;BME280;34064;44.942;0.008;2023-07-13T12:16:15;99029.28;;;30.47;28.46
47280;BME280;34064;44.942;0.008;2023-07-13T12:18:42;99020.56;;;30.50;28.99
47280;BME280;34064;44.942;0.008;2023-07-13T12:21:13;99015.56;;;30.47;27.82
47280;BME280;34064;44.942;0.008;2023-07-13T12:23:42;99011.31;;;30.40;28.74
47280;BME280;34064;44.942;0.008;2023-07-13T12:26:09;99010.69;;;30.49;28.60
47280;BME280;34064;44.942;0.008;2023-07-13T12:28:38;99010.19;;;30.64;28.78
47280;BME280;34064;44.942;0.008;2023-07-13T12:31:06;98998.19;;;30.83;28.42
47280;BME280;34064;44.942;0.008;2023-07-13T12:33:32;98988.25;;;30.93;28.34
47280;BME280;34064;44.942;0.008;2023-07-13T12:36:03;98995.69;;;30.81;27.89
47280;BME280;34064;44.942;0.008;2023-07-13T12:38:30;99002.84;;;30.82;27.72
47280;BME280;34064;44.942;0.008;2023-07-13T12:40:56;99006.66;;;30.81;27.47
47280;BME280;34064;44.942;0.008;2023-07-13T12:43:23;99012.13;;;30.64;28.22
47280;BME280;34064;44.942;0.008;2023-07-13T12:45:59;99017.38;;;30.54;28.06
47280;BME280;34064;44.942;0.008;2023-07-13T12:48:27;99016.31;;;30.55;28.26
47280;BME280;34064;44.942;0.008;2023-07-13T12:50:54;99018.06;;;30.61;28.42
47280;BME280;34064;44.942;0.008;2023-07-13T12:53:21;99014.03;;;30.52;28.00
47280;BME280;34064;44.942;0.008;2023-07-13T12:55:49;99022.16;;;30.46;28.45
47280;BME280;34064;44.942;0.008;2023-07-13T12:58:18;99023.44;;;30.44;28.47
47280;BME280;34064;44.942;0.008;2023-07-13T13:00:48;99023.06;;;30.64;27.97
47280;BME280;34064;44.942;0.008;2023-07-13T13:06:02;99007.19;;;30.95;28.26
47280;BME280;34064;44.942;0.008;2023-07-13T13:08:31;98992.44;;;31.13;28.33
47280;BME280;34064;44.942;0.008;2023-07-13T13:10:57;98987.47;;;31.27;27.88
47280;BME280;34064;44.942;0.008;2023-07-13T13:13:23;98986.56;;;31.38;27.84
47280;BME280;34064;44.942;0.008;2023-07-13T13:15:50;98970.81;;;31.68;27.10
47280;BME280;34064;44.942;0.008;2023-07-13T13:18:21;98963.81;;;31.77;26.85
47280;BME280;34064;44.942;0.008;2023-07-13T13:20:48;98961.34;;;31.76;26.65
47280;BME280;34064;44.942;0.008;2023-07-13T13:23:16;98965.13;;;31.92;26.63
47280;BME280;34064;44.942;0.008;2023-07-13T13:25:44;98961.84;;;31.95;26.62
47280;BME280;34064;44.942;0.008;2023-07-13T13:28:17;98958.03;;;31.96;26.30
47280;BME280;34064;44.942;0.008;2023-07-13T13:30:45;98963.19;;;31.92;25.76
47280;BME280;34064;44.942;0.008;2023-07-13T13:33:13;98965.94;;;31.92;26.43
47280;BME280;34064;44.942;0.008;2023-07-13T13:35:40;98955.59;;;31.99;26.00
47280;BME280;34064;44.942;0.008;2023-07-13T13:38:11;98949.16;;;32.11;26.14
47280;BME280;34064;44.942;0.008;2023-07-13T13:40:38;98939.88;;;32.17;26.33